sensor_id;sensor_type;location;lat;lon;timestamp;temperature;humidity
20102;DHT22;10210;52.284;9.892;2023-02-28T00:00:31;5.70;99.90
20102;DHT22;10210;52.284;9.892;2023-02-28T00:02:57;5.70;99.90
20102;DHT22;10210;52.284;9.892;2023-02-28T00:05:24;5.70;99.90
20102;DHT22;10210;52.284;9.892;2023-02-28T00:07:51;5.70;99.90
20102;DHT22;10210;52.284;9.892;2023-02-28T00:10:23;5.70;99.90
20102;DHT22;10210;52.284;9.892;2023-02-28T00:12:53;5.70;99.90
20102;DHT22;10210;52.284;9.892;2023-02-28T00:15:20;5.80;99.90
20102;DHT22;10210;52.284;9.892;2023-02-28T00:17:46;5.70;99.90
20102;DHT22;10210;52.284;9.892;2023-02-28T00:20:13;5.80;99.90
20102;DHT22;10210;52.284;9.892;2023-02-28T00:22:44;5.70;99.90
20102;DHT22;10210;52.284;9.892;2023-02-28T00:25:12;5.80;99.90
20102;DHT22;10210;52.284;9.892;2023-02-28T00:27:40;5.70;99.90
20102;DHT22;10210;52.284;9.892;2023-02-28T00:30:07;5.70;99.90
20102;DHT22;10210;52.284;9.892;2023-02-28T00:32:35;5.70;99.90
20102;DHT22;10210;52.284;9.892;2023-02-28T00:35:01;5.60;99.90
20102;DHT22;10210;52.284;9.892;2023-02-28T00:37:28;5.60;99.90
20102;DHT22;10210;52.284;9.892;2023-02-28T00:39:54;5.60;99.90
20102;DHT22;10210;52.284;9.892;2023-02-28T00:42:20;5.50;99.90
20102;DHT22;10210;52.284;9.892;2023-02-28T00:44:45;5.50;99.90
20102;DHT22;10210;52.284;9.892;2023-02-28T00:47:11;5.50;99.90
20102;DHT22;10210;52.284;9.892;2023-02-28T00:49:37;5.40;99.90
20102;DHT22;10210;52.284;9.892;2023-02-28T00:52:02;5.30;99.90
20102;DHT22;10210;52.284;9.892;2023-02-28T00:54:28;5.30;99.90
20102;DHT22;10210;52.284;9.892;2023-02-28T00:56:54;5.30;99.90
20102;DHT22;10210;52.284;9.892;2023-02-28T00:59:20;5.20;99.90
20102;DHT22;10210;52.284;9.892;2023-02-28T01:01:46;5.20;99.90
20102;DHT22;10210;52.284;9.892;2023-02-28T01:04:12;5.20;99.90
20102;DHT22;10210;52.284;9.892;2023-02-28T01:06:39;5.10;99.90
20102;DHT22;10210;52.284;9.892;2023-02-28T01:09:06;5.10;99.90
20102;DHT22;10210;52.284;9.892;2023-02-28T01:11:33;5.00;99.90
20102;DHT22;10210;52.284;9.892;2023-02-28T01:14:00;5.00;99.90
20102;DHT22;10210;52.284;9.892;2023-02-28T01:16:26;5.00;99.90
20102;DHT22;10210;52.284;9.892;2023-02-28T01:18:53;4.90;99.90
20102;DHT22;10210;52.284;9.892;2023-02-28T01:21:20;4.90;99.90
20102;DHT22;10210;52.284;9.892;2023-02-28T01:23:46;4.90;99.90
20102;DHT22;10210;52.284;9.892;2023-02-28T01:26:22;4.80;99.90
20102;DHT22;10210;52.284;9.892;2023-02-28T01:28:50;4.80;99.90
20102;DHT22;10210;52.284;9.892;2023-02-28T01:31:17;4.70;99.90
20102;DHT22;10210;52.284;9.892;2023-02-28T01:33:44;4.70;99.90
20102;DHT22;10210;52.284;9.892;2023-02-28T01:36:17;4.70;99.90
20102;DHT22;10210;52.284;9.892;2023-02-28T01:38:47;4.70;99.90
20102;DHT22;10210;52.284;9.892;2023-02-28T01:41:18;4.70;99.90
20102;DHT22;10210;52.284;9.892;2023-02-28T01:46:15;4.60;99.90
20102;DHT22;10210;52.284;9.892;2023-02-28T01:49:22;4.60;99.90
20102;DHT22;10210;52.284;9.892;2023-02-28T01:51:50;4.60;99.90
20102;DHT22;10210;52.284;9.892;2023-02-28T01:54:28;4.60;99.90
20102;DHT22;10210;52.284;9.892;2023-02-28T01:57:18;4.50;99.90
20102;DHT22;10210;52.284;9.892;2023-02-28T01:59:52;4.50;99.90
20102;DHT22;10210;52.284;9.892;2023-02-28T02:02:25;4.50;99.90
20102;DHT22;10210;52.284;9.892;2023-02-28T02:05:27;4.50;99.90
20102;DHT22;10210;52.284;9.892;2023-02-28T02:07:51;4.40;99.90
20102;DHT22;10210;52.284;9.892;2023-02-28T02:10:25;4.40;99.90
20102;DHT22;10210;52.284;9.892;2023-02-28T02:22:00;4.30;99.90
20102;DHT22;10210;52.284;9.892;2023-02-28T02:25:18;4.20;99.90
20102;DHT22;10210;52.284;9.892;2023-02-28T02:34:04;4.20;99.90
20102;DHT22;10210;52.284;9.892;2023-02-28T02:40:22;4.10;99.90
20102;DHT22;10210;52.284;9.892;2023-02-28T02:45:49;4.10;99.90
20102;DHT22;10210;52.284;9.892;2023-02-28T02:48:24;4.10;99.90
20102;DHT22;10210;52.284;9.892;2023-02-28T02:50:55;4.10;99.90
20102;DHT22;10210;52.284;9.892;2023-02-28T02:53:30;4.00;99.90
20102;DHT22;10210;52.284;9.892;2023-02-28T02:56:01;4.10;99.90
20102;DHT22;10210;52.284;9.892;2023-02-28T02:58:32;4.00;99.90
20102;DHT22;10210;52.284;9.892;2023-02-28T03:01:08;4.00;99.90
20102;DHT22;10210;52.284;9.892;2023-02-28T03:03:37;4.00;99.90
20102;DHT22;10210;52.284;9.892;2023-02-28T03:06:03;4.00;99.90
20102;DHT22;10210;52.284;9.892;2023-02-28T03:08:35;4.00;99.90
20102;DHT22;10210;52.284;9.892;2023-02-28T03:11:04;3.90;99.90
20102;DHT22;10210;52.284;9.892;2023-02-28T03:17:29;3.80;99.90
20102;DHT22;10210;52.284;9.892;2023-02-28T03:28:05;3.70;99.90
20102;DHT22;10210;52.284;9.892;2023-02-28T03:33:23;3.60;99.90
20102;DHT22;10210;52.284;9.892;2023-02-28T03:36:01;3.60;99.90
20102;DHT22;10210;52.284;9.892;2023-02-28T03:41:23;3.50;99.90
20102;DHT22;10210;52.284;9.892;2023-02-28T03:43:59;3.50;99.90
20102;DHT22;10210;52.284;9.892;2023-02-28T03:46:36;3.50;99.90
20102;DHT22;10210;52.284;9.892;2023-02-28T03:49:20;3.50;99.90
20102;DHT22;10210;52.284;9.892;2023-02-28T03:51:51;3.40;99.90
20102;DHT22;10210;52.284;9.892;2023-02-28T03:54:27;3.40;99.90
20102;DHT22;10210;52.284;9.892;2023-02-28T04:00:00;3.40;99.90
20102;DHT22;10210;52.284;9.892;2023-02-28T04:02:32;3.40;99.90
20102;DHT22;10210;52.284;9.892;2023-02-28T04:05:00;3.30;99.90
20102;DHT22;10210;52.284;9.892;2023-02-28T04:07:29;3.30;99.90
20102;DHT22;10210;52.284;9.892;2023-02-28T04:09:56;3.30;99.90
20102;DHT22;10210;52.284;9.892;2023-02-28T04:12:22;3.30;99.90
20102;DHT22;10210;52.284;9.892;2023-02-28T04:14:49;3.30;99.90
20102;DHT22;10210;52.284;9.892;2023-02-28T04:17:15;3.30;99.90
20102;DHT22;10210;52.284;9.892;2023-02-28T04:19:42;3.30;99.90
20102;DHT22;10210;52.284;9.892;2023-02-28T04:22:09;3.30;99.90
20102;DHT22;10210;52.284;9.892;2023-02-28T04:24:36;3.20;99.90
20102;DHT22;10210;52.284;9.892;2023-02-28T04:27:02;3.20;99.90
20102;DHT22;10210;52.284;9.892;2023-02-28T04:29:30;3.20;99.90
20102;DHT22;10210;52.284;9.892;2023-02-28T04:31:58;3.20;99.90
20102;DHT22;10210;52.284;9.892;2023-02-28T04:34:26;3.20;99.90
20102;DHT22;10210;52.284;9.892;2023-02-28T04:36:53;3.20;99.90
20102;DHT22;10210;52.284;9.892;2023-02-28T04:39:21;3.20;99.90
20102;DHT22;10210;52.284;9.892;2023-02-28T04:41:48;3.20;99.90
20102;DHT22;10210;52.284;9.892;2023-02-28T04:44:14;3.20;99.90
20102;DHT22;10210;52.284;9.892;2023-02-28T04:46:41;3.20;99.90
20102;DHT22;10210;52.284;9.892;2023-02-28T04:49:10;3.20;99.90
20102;DHT22;10210;52.284;9.892;2023-02-28T04:51:37;3.20;99.90
20102;DHT22;10210;52.284;9.892;2023-02-28T04:54:03;3.20;99.90
20102;DHT22;10210;52.284;9.892;2023-02-28T04:56:28;3.20;99.90
20102;DHT22;10210;52.284;9.892;2023-02-28T04:58:54;3.20;99.90
20102;DHT22;10210;52.284;9.892;2023-02-28T05:03:46;3.20;99.90
20102;DHT22;10210;52.284;9.892;2023-02-28T05:06:13;3.20;99.90
20102;DHT22;10210;52.284;9.892;2023-02-28T05:08:39;3.20;99.90
20102;DHT22;10210;52.284;9.892;2023-02-28T05:13:45;3.20;99.90
20102;DHT22;10210;52.284;9.892;2023-02-28T05:16:11;3.20;99.90
20102;DHT22;10210;52.284;9.892;2023-02-28T05:18:37;3.20;99.90
20102;DHT22;10210;52.284;9.892;2023-02-28T05:21:04;3.10;99.90
20102;DHT22;10210;52.284;9.892;2023-02-28T05:23:31;3.10;99.90
20102;DHT22;10210;52.284;9.892;2023-02-28T05:25:57;3.10;99.90
20102;DHT22;10210;52.284;9.892;2023-02-28T05:28:23;3.10;99.90
20102;DHT22;10210;52.284;9.892;2023-02-28T05:30:49;3.10;99.90
20102;DHT22;10210;52.284;9.892;2023-02-28T05:33:14;3.10;99.90
20102;DHT22;10210;52.284;9.892;2023-02-28T05:35:42;3.10;99.90
20102;DHT22;10210;52.284;9.892;2023-02-28T05:38:08;3.10;99.90
20102;DHT22;10210;52.284;9.892;2023-02-28T05:40:34;3.10;99.90
20102;DHT22;10210;52.284;9.892;2023-02-28T05:43:00;3.10;99.90
20102;DHT22;10210;52.284;9.892;2023-02-28T05:45:26;3.10;99.90
20102;DHT22;10210;52.284;9.892;2023-02-28T05:47:55;3.00;99.90
20102;DHT22;10210;52.284;9.892;2023-02-28T05:50:21;3.00;99.90
20102;DHT22;10210;52.284;9.892;2023-02-28T05:52:53;3.00;99.90
20102;DHT22;10210;52.284;9.892;2023-02-28T05:55:19;3.00;99.90
20102;DHT22;10210;52.284;9.892;2023-02-28T05:57:44;3.00;99.90
20102;DHT22;10210;52.284;9.892;2023-02-28T06:00:11;2.90;99.90
20102;DHT22;10210;52.284;9.892;2023-02-28T06:02:39;2.90;99.90
20102;DHT22;10210;52.284;9.892;2023-02-28T06:05:09;2.90;99.90
20102;DHT22;10210;52.284;9.892;2023-02-28T06:07:39;2.90;99.90
20102;DHT22;10210;52.284;9.892;2023-02-28T06:10:05;2.80;99.90
20102;DHT22;10210;52.284;9.892;2023-02-28T06:12:31;2.80;99.90
20102;DHT22;10210;52.284;9.892;2023-02-28T06:14:57;2.80;99.90
20102;DHT22;10210;52.284;9.892;2023-02-28T06:17:22;2.80;99.90
20102;DHT22;10210;52.284;9.892;2023-02-28T06:19:48;2.70;99.90
20102;DHT22;10210;52.284;9.892;2023-02-28T06:22:14;2.70;99.90
20102;DHT22;10210;52.284;9.892;2023-02-28T06:24:39;2.70;99.90
20102;DHT22;10210;52.284;9.892;2023-02-28T06:27:05;2.70;99.90
20102;DHT22;10210;52.284;9.892;2023-02-28T06:29:34;2.70;99.90
20102;DHT22;10210;52.284;9.892;2023-02-28T06:32:01;2.70;99.90
20102;DHT22;10210;52.284;9.892;2023-02-28T06:34:27;2.70;99.90
20102;DHT22;10210;52.284;9.892;2023-02-28T06:36:52;2.60;99.90
20102;DHT22;10210;52.284;9.892;2023-02-28T06:39:18;2.60;99.90
20102;DHT22;10210;52.284;9.892;2023-02-28T06:41:44;2.60;99.90
20102;DHT22;10210;52.284;9.892;2023-02-28T06:44:17;2.60;99.90
20102;DHT22;10210;52.284;9.892;2023-02-28T06:46:45;2.50;99.90
20102;DHT22;10210;52.284;9.892;2023-02-28T06:49:11;2.50;99.90
20102;DHT22;10210;52.284;9.892;2023-02-28T06:51:39;2.50;99.90
20102;DHT22;10210;52.284;9.892;2023-02-28T06:54:07;2.50;99.90
20102;DHT22;10210;52.284;9.892;2023-02-28T06:56:36;2.50;99.90
20102;DHT22;10210;52.284;9.892;2023-02-28T06:59:02;2.50;99.90
20102;DHT22;10210;52.284;9.892;2023-02-28T07:01:29;2.40;99.90
20102;DHT22;10210;52.284;9.892;2023-02-28T07:03:57;2.50;99.90
20102;DHT22;10210;52.284;9.892;2023-02-28T07:06:23;2.50;99.90
20102;DHT22;10210;52.284;9.892;2023-02-28T07:08:51;2.50;99.90
20102;DHT22;10210;52.284;9.892;2023-02-28T07:11:18;2.50;99.90
20102;DHT22;10210;52.284;9.892;2023-02-28T07:13:46;2.50;99.90
20102;DHT22;10210;52.284;9.892;2023-02-28T07:16:13;2.50;99.90
20102;DHT22;10210;52.284;9.892;2023-02-28T07:18:38;2.60;99.90
20102;DHT22;10210;52.284;9.892;2023-02-28T07:21:07;2.50;99.90
20102;DHT22;10210;52.284;9.892;2023-02-28T07:23:35;2.60;99.90
20102;DHT22;10210;52.284;9.892;2023-02-28T07:26:03;2.60;99.90
20102;DHT22;10210;52.284;9.892;2023-02-28T07:28:29;2.60;99.90
20102;DHT22;10210;52.284;9.892;2023-02-28T07:30:55;2.60;99.90
20102;DHT22;10210;52.284;9.892;2023-02-28T07:33:21;2.60;99.90
20102;DHT22;10210;52.284;9.892;2023-02-28T07:35:47;2.70;99.90
20102;DHT22;10210;52.284;9.892;2023-02-28T07:38:12;2.70;99.90
20102;DHT22;10210;52.284;9.892;2023-02-28T07:40:39;2.70;99.90
20102;DHT22;10210;52.284;9.892;2023-02-28T07:43:05;2.80;99.90
20102;DHT22;10210;52.284;9.892;2023-02-28T07:45:31;2.80;99.90
20102;DHT22;10210;52.284;9.892;2023-02-28T07:48:00;2.80;99.90
20102;DHT22;10210;52.284;9.892;2023-02-28T07:50:26;2.80;99.90
20102;DHT22;10210;52.284;9.892;2023-02-28T07:52:57;2.90;99.90
20102;DHT22;10210;52.284;9.892;2023-02-28T07:55:23;2.90;99.90
20102;DHT22;10210;52.284;9.892;2023-02-28T07:57:49;2.90;99.90
20102;DHT22;10210;52.284;9.892;2023-02-28T08:00:14;2.90;99.90
20102;DHT22;10210;52.284;9.892;2023-02-28T08:02:40;2.90;99.90
20102;DHT22;10210;52.284;9.892;2023-02-28T08:05:07;2.90;99.90
20102;DHT22;10210;52.284;9.892;2023-02-28T08:07:32;3.00;99.90
20102;DHT22;10210;52.284;9.892;2023-02-28T08:09:59;3.00;99.90
20102;DHT22;10210;52.284;9.892;2023-02-28T08:12:25;3.00;99.90
20102;DHT22;10210;52.284;9.892;2023-02-28T08:14:51;3.10;99.90
20102;DHT22;10210;52.284;9.892;2023-02-28T08:17:17;3.10;99.90
20102;DHT22;10210;52.284;9.892;2023-02-28T08:19:45;3.20;99.90
20102;DHT22;10210;52.284;9.892;2023-02-28T08:22:11;3.30;99.90
20102;DHT22;10210;52.284;9.892;2023-02-28T08:24:37;3.30;99.90
20102;DHT22;10210;52.284;9.892;2023-02-28T08:27:03;3.40;99.90
20102;DHT22;10210;52.284;9.892;2023-02-28T08:29:29;3.50;99.90
20102;DHT22;10210;52.284;9.892;2023-02-28T08:31:55;3.60;99.90
20102;DHT22;10210;52.284;9.892;2023-02-28T08:34:22;3.70;99.90
20102;DHT22;10210;52.284;9.892;2023-02-28T08:36:49;3.80;99.90
20102;DHT22;10210;52.284;9.892;2023-02-28T08:39:15;3.80;99.90
20102;DHT22;10210;52.284;9.892;2023-02-28T08:41:42;3.90;99.90
20102;DHT22;10210;52.284;9.892;2023-02-28T08:44:07;4.00;99.90
20102;DHT22;10210;52.284;9.892;2023-02-28T08:46:33;4.00;99.90
20102;DHT22;10210;52.284;9.892;2023-02-28T08:48:59;4.10;99.90
20102;DHT22;10210;52.284;9.892;2023-02-28T08:51:27;4.20;99.90
20102;DHT22;10210;52.284;9.892;2023-02-28T08:53:55;4.40;99.90
20102;DHT22;10210;52.284;9.892;2023-02-28T08:56:22;4.70;99.90
20102;DHT22;10210;52.284;9.892;2023-02-28T08:58:50;5.10;99.90
20102;DHT22;10210;52.284;9.892;2023-02-28T09:01:19;5.50;99.90
20102;DHT22;10210;52.284;9.892;2023-02-28T09:03:53;6.00;99.90
20102;DHT22;10210;52.284;9.892;2023-02-28T09:06:22;6.50;99.90
20102;DHT22;10210;52.284;9.892;2023-02-28T09:08:51;7.00;99.90
20102;DHT22;10210;52.284;9.892;2023-02-28T09:11:18;7.50;99.90
20102;DHT22;10210;52.284;9.892;2023-02-28T09:13:45;7.90;99.90
20102;DHT22;10210;52.284;9.892;2023-02-28T09:16:13;8.30;99.90
20102;DHT22;10210;52.284;9.892;2023-02-28T09:18:41;8.60;99.90
20102;DHT22;10210;52.284;9.892;2023-02-28T09:21:10;9.00;99.90
20102;DHT22;10210;52.284;9.892;2023-02-28T09:23:42;9.30;99.90
20102;DHT22;10210;52.284;9.892;2023-02-28T09:26:18;9.50;99.90
20102;DHT22;10210;52.284;9.892;2023-02-28T09:28:53;9.70;99.90
20102;DHT22;10210;52.284;9.892;2023-02-28T09:31:22;9.90;99.90
20102;DHT22;10210;52.284;9.892;2023-02-28T09:33:52;10.10;99.90
20102;DHT22;10210;52.284;9.892;2023-02-28T09:36:22;10.30;99.90
20102;DHT22;10210;52.284;9.892;2023-02-28T09:38:48;10.50;99.90
20102;DHT22;10210;52.284;9.892;2023-02-28T09:41:20;10.60;99.90
20102;DHT22;10210;52.284;9.892;2023-02-28T09:43:53;10.80;99.90
20102;DHT22;10210;52.284;9.892;2023-02-28T09:46:44;10.90;99.90
20102;DHT22;10210;52.284;9.892;2023-02-28T09:49:19;11.10;99.90
20102;DHT22;10210;52.284;9.892;2023-02-28T09:52:01;11.20;99.90
20102;DHT22;10210;52.284;9.892;2023-02-28T09:54:31;11.30;99.90
20102;DHT22;10210;52.284;9.892;2023-02-28T09:59:51;11.30;99.90
20102;DHT22;10210;52.284;9.892;2023-02-28T10:02:36;11.30;99.90
20102;DHT22;10210;52.284;9.892;2023-02-28T10:05:20;11.30;99.90
20102;DHT22;10210;52.284;9.892;2023-02-28T10:08:00;11.40;99.90
20102;DHT22;10210;52.284;9.892;2023-02-28T10:10:48;11.30;99.90
20102;DHT22;10210;52.284;9.892;2023-02-28T10:16:22;11.20;99.90
20102;DHT22;10210;52.284;9.892;2023-02-28T10:19:01;11.00;99.90
20102;DHT22;10210;52.284;9.892;2023-02-28T10:21:41;10.90;99.90
20102;DHT22;10210;52.284;9.892;2023-02-28T10:24:23;10.80;99.90
20102;DHT22;10210;52.284;9.892;2023-02-28T10:27:06;10.70;99.90
20102;DHT22;10210;52.284;9.892;2023-02-28T10:29:42;10.50;99.90
20102;DHT22;10210;52.284;9.892;2023-02-28T10:32:11;10.40;99.90
20102;DHT22;10210;52.284;9.892;2023-02-28T10:34:42;10.30;99.90
20102;DHT22;10210;52.284;9.892;2023-02-28T10:37:10;10.20;99.90
20102;DHT22;10210;52.284;9.892;2023-02-28T10:39:40;10.00;99.90
20102;DHT22;10210;52.284;9.892;2023-02-28T10:42:25;9.90;99.90
20102;DHT22;10210;52.284;9.892;2023-02-28T10:45:10;9.60;99.90
20102;DHT22;10210;52.284;9.892;2023-02-28T10:47:55;9.40;99.90
20102;DHT22;10210;52.284;9.892;2023-02-28T10:50:50;9.20;99.90
20102;DHT22;10210;52.284;9.892;2023-02-28T10:56:04;8.70;99.90
20102;DHT22;10210;52.284;9.892;2023-02-28T11:06:56;8.10;99.90
20102;DHT22;10210;52.284;9.892;2023-02-28T11:09:34;7.90;99.90
20102;DHT22;10210;52.284;9.892;2023-02-28T11:12:04;7.90;99.90
20102;DHT22;10210;52.284;9.892;2023-02-28T11:14:49;7.80;99.90
20102;DHT22;10210;52.284;9.892;2023-02-28T11:17:23;7.70;99.90
20102;DHT22;10210;52.284;9.892;2023-02-28T11:20:03;7.70;99.90
20102;DHT22;10210;52.284;9.892;2023-02-28T11:22:35;7.70;99.90
20102;DHT22;10210;52.284;9.892;2023-02-28T11:25:16;7.60;99.90
20102;DHT22;10210;52.284;9.892;2023-02-28T11:27:53;7.60;99.90
20102;DHT22;10210;52.284;9.892;2023-02-28T11:30:36;7.60;99.90
20102;DHT22;10210;52.284;9.892;2023-02-28T11:33:24;7.60;99.90
20102;DHT22;10210;52.284;9.892;2023-02-28T11:36:00;7.70;99.90
20102;DHT22;10210;52.284;9.892;2023-02-28T11:38:31;7.70;99.90
20102;DHT22;10210;52.284;9.892;2023-02-28T11:41:09;7.80;99.90
20102;DHT22;10210;52.284;9.892;2023-02-28T11:44:18;7.90;99.90
20102;DHT22;10210;52.284;9.892;2023-02-28T11:47:00;7.90;99.90
20102;DHT22;10210;52.284;9.892;2023-02-28T11:55:31;8.10;99.90
20102;DHT22;10210;52.284;9.892;2023-02-28T12:07:04;8.50;99.90
20102;DHT22;10210;52.284;9.892;2023-02-28T12:16:21;8.80;99.90
20102;DHT22;10210;52.284;9.892;2023-02-28T12:22:02;9.00;99.90
20102;DHT22;10210;52.284;9.892;2023-02-28T12:27:46;9.20;99.90
20102;DHT22;10210;52.284;9.892;2023-02-28T12:30:17;9.30;99.90
20102;DHT22;10210;52.284;9.892;2023-02-28T12:32:53;9.40;99.90
20102;DHT22;10210;52.284;9.892;2023-02-28T12:35:33;9.50;99.90
20102;DHT22;10210;52.284;9.892;2023-02-28T12:38:22;9.70;99.90
20102;DHT22;10210;52.284;9.892;2023-02-28T12:41:05;9.80;99.90
20102;DHT22;10210;52.284;9.892;2023-02-28T12:43:50;9.90;99.90
20102;DHT22;10210;52.284;9.892;2023-02-28T12:46:32;10.10;99.90
20102;DHT22;10210;52.284;9.892;2023-02-28T12:49:08;10.20;99.90
20102;DHT22;10210;52.284;9.892;2023-02-28T12:51:38;10.20;99.90
20102;DHT22;10210;52.284;9.892;2023-02-28T12:54:16;10.30;99.90
20102;DHT22;10210;52.284;9.892;2023-02-28T12:57:06;10.30;99.90
20102;DHT22;10210;52.284;9.892;2023-02-28T12:59:58;10.20;99.90
20102;DHT22;10210;52.284;9.892;2023-02-28T13:02:56;10.10;99.90
20102;DHT22;10210;52.284;9.892;2023-02-28T13:09:11;9.80;99.90
20102;DHT22;10210;52.284;9.892;2023-02-28T13:11:53;9.60;99.90
20102;DHT22;10210;52.284;9.892;2023-02-28T13:19:37;9.30;99.90
20102;DHT22;10210;52.284;9.892;2023-02-28T13:22:05;9.30;99.90
20102;DHT22;10210;52.284;9.892;2023-02-28T13:24:53;9.20;99.90
20102;DHT22;10210;52.284;9.892;2023-02-28T13:27:36;9.20;99.90
20102;DHT22;10210;52.284;9.892;2023-02-28T13:33:24;9.10;99.90
20102;DHT22;10210;52.284;9.892;2023-02-28T13:38:46;9.10;99.90
20102;DHT22;10210;52.284;9.892;2023-02-28T13:44:22;9.20;99.90
20102;DHT22;10210;52.284;9.892;2023-02-28T13:51:50;9.40;99.90
20102;DHT22;10210;52.284;9.892;2023-02-28T14:05:27;9.80;99.90
20102;DHT22;10210;52.284;9.892;2023-02-28T14:07:57;9.90;99.90
20102;DHT22;10210;52.284;9.892;2023-02-28T14:10:31;9.90;99.90
20102;DHT22;10210;52.284;9.892;2023-02-28T14:13:12;10.00;99.90
20102;DHT22;10210;52.284;9.892;2023-02-28T14:15:39;10.00;99.90
20102;DHT22;10210;52.284;9.892;2023-02-28T14:18:19;10.00;99.90
20102;DHT22;10210;52.284;9.892;2023-02-28T14:20:47;10.10;99.90
20102;DHT22;10210;52.284;9.892;2023-02-28T14:23:39;10.10;99.90
20102;DHT22;10210;52.284;9.892;2023-02-28T14:32:27;10.10;99.90
20102;DHT22;10210;52.284;9.892;2023-02-28T14:35:03;10.20;99.90
20102;DHT22;10210;52.284;9.892;2023-02-28T14:37:42;10.20;99.90
20102;DHT22;10210;52.284;9.892;2023-02-28T14:40:16;10.20;99.90
20102;DHT22;10210;52.284;9.892;2023-02-28T14:42:58;10.20;99.90
20102;DHT22;10210;52.284;9.892;2023-02-28T14:45:34;10.20;99.90
20102;DHT22;10210;52.284;9.892;2023-02-28T14:48:05;10.30;99.90
20102;DHT22;10210;52.284;9.892;2023-02-28T14:50:36;10.20;99.90
20102;DHT22;10210;52.284;9.892;2023-02-28T14:53:03;10.30;99.90
20102;DHT22;10210;52.284;9.892;2023-02-28T14:55:45;10.30;99.90
20102;DHT22;10210;52.284;9.892;2023-02-28T14:58:30;10.20;99.90
20102;DHT22;10210;52.284;9.892;2023-02-28T15:01:00;10.20;99.90
20102;DHT22;10210;52.284;9.892;2023-02-28T15:06:15;10.20;99.90
20102;DHT22;10210;52.284;9.892;2023-02-28T15:08:46;10.20;99.90
20102;DHT22;10210;52.284;9.892;2023-02-28T15:11:16;10.30;99.90
20102;DHT22;10210;52.284;9.892;2023-02-28T15:13:52;10.30;99.90
20102;DHT22;10210;52.284;9.892;2023-02-28T15:16:26;10.30;99.90
20102;DHT22;10210;52.284;9.892;2023-02-28T15:19:12;10.30;99.90
20102;DHT22;10210;52.284;9.892;2023-02-28T15:21:50;10.20;99.90
20102;DHT22;10210;52.284;9.892;2023-02-28T15:24:37;10.20;99.90
20102;DHT22;10210;52.284;9.892;2023-02-28T15:27:22;10.10;99.90
20102;DHT22;10210;52.284;9.892;2023-02-28T15:30:00;10.10;99.90
20102;DHT22;10210;52.284;9.892;2023-02-28T15:32:33;10.00;99.90
20102;DHT22;10210;52.284;9.892;2023-02-28T15:35:37;10.00;99.90
20102;DHT22;10210;52.284;9.892;2023-02-28T15:38:23;10.00;99.90
20102;DHT22;10210;52.284;9.892;2023-02-28T15:40:55;10.00;99.90
20102;DHT22;10210;52.284;9.892;2023-02-28T15:43:25;10.00;99.90
20102;DHT22;10210;52.284;9.892;2023-02-28T15:45:59;10.00;99.90
20102;DHT22;10210;52.284;9.892;2023-02-28T15:48:33;10.00;99.90
20102;DHT22;10210;52.284;9.892;2023-02-28T15:54:24;10.00;99.90
20102;DHT22;10210;52.284;9.892;2023-02-28T15:56:57;10.00;99.90
20102;DHT22;10210;52.284;9.892;2023-02-28T15:59:32;10.00;99.90
20102;DHT22;10210;52.284;9.892;2023-02-28T16:04:36;9.90;99.90
20102;DHT22;10210;52.284;9.892;2023-02-28T16:07:05;9.90;99.90
20102;DHT22;10210;52.284;9.892;2023-02-28T16:09:31;9.80;99.90
20102;DHT22;10210;52.284;9.892;2023-02-28T16:12:01;9.80;99.90
20102;DHT22;10210;52.284;9.892;2023-02-28T16:14:29;9.70;99.90
20102;DHT22;10210;52.284;9.892;2023-02-28T16:17:05;9.70;99.90
20102;DHT22;10210;52.284;9.892;2023-02-28T16:19:34;9.60;99.90
20102;DHT22;10210;52.284;9.892;2023-02-28T16:22:00;9.60;99.90
20102;DHT22;10210;52.284;9.892;2023-02-28T16:24:26;9.60;99.90
20102;DHT22;10210;52.284;9.892;2023-02-28T16:26:54;9.50;99.90
20102;DHT22;10210;52.284;9.892;2023-02-28T16:29:29;9.40;99.90
20102;DHT22;10210;52.284;9.892;2023-02-28T16:32:01;9.40;99.90
20102;DHT22;10210;52.284;9.892;2023-02-28T16:34:29;9.30;99.90
20102;DHT22;10210;52.284;9.892;2023-02-28T16:36:54;9.30;99.90
20102;DHT22;10210;52.284;9.892;2023-02-28T16:39:20;9.20;99.90
20102;DHT22;10210;52.284;9.892;2023-02-28T16:41:47;9.10;99.90
20102;DHT22;10210;52.284;9.892;2023-02-28T16:44:24;9.10;99.90
20102;DHT22;10210;52.284;9.892;2023-02-28T16:46:53;9.00;99.90
20102;DHT22;10210;52.284;9.892;2023-02-28T16:49:19;8.90;99.90
20102;DHT22;10210;52.284;9.892;2023-02-28T16:51:45;8.90;99.90
20102;DHT22;10210;52.284;9.892;2023-02-28T16:54:10;8.80;99.90
20102;DHT22;10210;52.284;9.892;2023-02-28T16:56:40;8.70;99.90
20102;DHT22;10210;52.284;9.892;2023-02-28T16:59:10;8.70;99.90
20102;DHT22;10210;52.284;9.892;2023-02-28T17:01:37;8.60;99.90
20102;DHT22;10210;52.284;9.892;2023-02-28T17:04:03;8.60;99.90
20102;DHT22;10210;52.284;9.892;2023-02-28T17:06:29;8.50;99.90
20102;DHT22;10210;52.284;9.892;2023-02-28T17:08:56;8.50;99.90
20102;DHT22;10210;52.284;9.892;2023-02-28T17:11:24;8.40;99.90
20102;DHT22;10210;52.284;9.892;2023-02-28T17:13:50;8.40;99.90
20102;DHT22;10210;52.284;9.892;2023-02-28T17:18:45;8.30;99.90
20102;DHT22;10210;52.284;9.892;2023-02-28T17:21:16;8.20;99.90
20102;DHT22;10210;52.284;9.892;2023-02-28T17:23:43;8.10;99.90
20102;DHT22;10210;52.284;9.892;2023-02-28T17:26:13;8.10;99.90
20102;DHT22;10210;52.284;9.892;2023-02-28T17:28:40;8.10;99.90
20102;DHT22;10210;52.284;9.892;2023-02-28T17:31:07;8.00;99.90
20102;DHT22;10210;52.284;9.892;2023-02-28T17:33:32;8.00;99.90
20102;DHT22;10210;52.284;9.892;2023-02-28T17:36:00;7.90;99.90
20102;DHT22;10210;52.284;9.892;2023-02-28T17:38:25;7.90;99.90
20102;DHT22;10210;52.284;9.892;2023-02-28T17:40:51;7.80;99.90
20102;DHT22;10210;52.284;9.892;2023-02-28T17:43:25;7.80;99.90
20102;DHT22;10210;52.284;9.892;2023-02-28T17:45:52;7.80;99.90
20102;DHT22;10210;52.284;9.892;2023-02-28T17:48:19;7.70;99.90
20102;DHT22;10210;52.284;9.892;2023-02-28T17:50:45;7.70;99.90
20102;DHT22;10210;52.284;9.892;2023-02-28T17:53:11;7.70;99.90
20102;DHT22;10210;52.284;9.892;2023-02-28T17:55:37;7.70;99.90
20102;DHT22;10210;52.284;9.892;2023-02-28T17:58:03;7.60;99.90
20102;DHT22;10210;52.284;9.892;2023-02-28T18:00:29;7.60;99.90
20102;DHT22;10210;52.284;9.892;2023-02-28T18:02:57;7.60;99.90
20102;DHT22;10210;52.284;9.892;2023-02-28T18:05:23;7.50;99.90
20102;DHT22;10210;52.284;9.892;2023-02-28T18:07:48;7.50;99.90
20102;DHT22;10210;52.284;9.892;2023-02-28T18:10:17;7.50;99.90
20102;DHT22;10210;52.284;9.892;2023-02-28T18:12:51;7.50;99.90
20102;DHT22;10210;52.284;9.892;2023-02-28T18:15:18;7.40;99.90
20102;DHT22;10210;52.284;9.892;2023-02-28T18:17:46;7.40;99.90
20102;DHT22;10210;52.284;9.892;2023-02-28T18:20:12;7.40;99.90
20102;DHT22;10210;52.284;9.892;2023-02-28T18:22:40;7.40;99.90
20102;DHT22;10210;52.284;9.892;2023-02-28T18:25:07;7.40;99.90
20102;DHT22;10210;52.284;9.892;2023-02-28T18:27:35;7.30;99.90
20102;DHT22;10210;52.284;9.892;2023-02-28T18:30:01;7.30;99.90
20102;DHT22;10210;52.284;9.892;2023-02-28T18:32:29;7.20;99.90